Latest Coastal Weather Observations for Frankston

IDV60701

Issued at 4:51 am EST Thursday 26 May 2016 (issued every 10 minutes, with the page automatically refreshed every 10 minutes)

About coastal observations | Map of coastal stations | Coastal observations for VIC | Marine services | Other Formats
Station Details ID: 086371 Name: FRANKSTON AWS Lat: -38.15 Lon: 145.12 Height: 6.0 m
Data from the previous 72 hours. | See also: Recent months at Frankston
Date/Time
EST
Temp

°C
Wind Pressure Rain
since 9am
mm
Weather Cloud Vis
km
Sea
Height
m
Swell
Dir
 
Speed
knots
Gust
knots
hPa Trend Height
m
Period
s
Dir
26/04:30am 11.8 N 12 17 - - - - - - - - - -
26/04:00am 11.8 N 12 15 - - - - - - - - - -
26/03:30am 11.7 N 12 14 - - - - - - - - - -
26/03:00am 11.5 N 11 14 - - - - - - - - - -
26/02:30am 11.5 N 11 13 - - - - - - - - - -
26/02:00am 11.7 N 10 13 - - - - - - - - - -
26/01:30am 11.4 N 7 12 - - - - - - - - - -
26/01:00am 11.5 N 13 16 - - - - - - - - - -
26/12:30am 11.5 N 15 20 - - - - - - - - - -
26/12:00am 11.6 N 18 23 - - - - - - - - - -
 
Date/Time
EST
Temp

°C
Wind Pressure Rain
since 9am
mm
Weather Cloud Vis
km
Sea
Height
m
Swell
Dir
 
Speed
knots
Gust
knots
hPa Trend Height
m
Period
s
Dir
25/11:30pm 11.6 N 19 24 - - - - - - - - - -
25/11:00pm 12.2 N 17 23 - - - - - - - - - -
25/10:30pm 11.7 N 14 19 - - - - - - - - - -
25/10:00pm 12.0 N 16 21 - - - - - - - - - -
25/09:30pm 12.5 N 18 22 - - - - - - - - - -
25/09:00pm 12.5 N 17 22 - - - - - - - - - -
25/08:30pm 13.2 N 16 20 - - - - - - - - - -
25/08:00pm 12.9 N 16 20 - - - - - - - - - -
25/07:30pm 13.4 N 16 20 - - - - - - - - - -
25/07:00pm 13.5 N 16 21 - - - - - - - - - -
25/06:30pm 13.8 N 18 23 - - - - - - - - - -
25/06:00pm 13.9 N 17 22 - - - - - - - - - -
25/05:30pm 13.8 N 14 18 - - - - - - - - - -
25/05:00pm 13.4 N 13 16 - - - - - - - - - -
25/04:30pm 12.7 NNE 10 16 - - - - - - - - - -
25/04:00pm 12.6 NNE 11 14 - - - - - - - - - -
25/03:30pm 13.3 N 14 19 - - - - - - - - - -
25/03:00pm 14.3 N 19 23 - - - - - - - - - -
25/02:30pm 14.7 N 19 24 - - - - - - - - - -
25/02:00pm 15.2 N 19 25 - - - - - - - - - -
25/01:30pm 15.2 N 20 25 - - - - - - - - - -
25/01:00pm 15.3 N 22 28 - - - - - - - - - -
25/12:30pm 15.4 N 17 24 - - - - - - - - - -
25/12:00pm 14.9 NNE 13 17 - - - - - - - - - -
25/11:30am 14.5 N 16 20 - - - - - - - - - -
25/11:00am 14.0 NNE 15 20 - - - - - - - - - -
25/10:30am 13.8 N 14 18 - - - - - - - - - -
25/10:00am 13.4 N 12 15 - - - - - - - - - -
25/09:30am 12.7 NNE 8 11 - - - - - - - - - -
25/09:00am 12.0 NE 5 9 - - - - - - - - - -
25/08:30am 11.5 NE 3 5 - - - - - - - - - -
25/08:00am 11.2 NE 4 6 - - - - - - - - - -
25/07:30am 11.0 NE 3 5 - - - - - - - - - -
25/07:00am 10.8 ENE 2 4 - - - - - - - - - -
25/06:30am 10.6 E 2 4 - - - - - - - - - -
25/06:00am 10.0 E 3 4 - - - - - - - - - -
25/05:30am 9.6 E 2 3 - - - - - - - - - -
25/05:00am 9.5 E 3 5 - - - - - - - - - -
25/04:30am 9.6 ENE 3 5 - - - - - - - - - -
25/04:00am 9.8 E 2 4 - - - - - - - - - -
25/03:30am 9.8 E 2 3 - - - - - - - - - -
25/03:00am 9.7 ENE 2 3 - - - - - - - - - -
25/02:30am 9.7 ENE 2 4 - - - - - - - - - -
25/02:00am 9.7 ENE 1 2 - - - - - - - - - -
25/01:30am 10.0 NNE 2 3 - - - - - - - - - -
25/01:00am 9.4 ESE 1 2 - - - - - - - - - -
25/12:30am 9.6 CALM 0 0 - - - - - - - - - -
25/12:00am 9.4 E 2 3 - - - - - - - - - -
 
Date/Time
EST
Temp

°C
Wind Pressure Rain
since 9am
mm
Weather Cloud Vis
km
Sea
Height
m
Swell
Dir
 
Speed
knots
Gust
knots
hPa Trend Height
m
Period
s
Dir
24/11:30pm 9.4 ESE 2 4 - - - - - - - - - -
24/11:00pm 9.4 E 2 4 - - - - - - - - - -
24/10:30pm 9.7 ESE 3 5 - - - - - - - - - -
24/10:00pm 9.9 E 3 5 - - - - - - - - - -
24/09:30pm 9.8 ESE 4 5 - - - - - - - - - -
24/09:00pm 10.1 SE 1 4 - - - - - - - - - -
24/08:30pm 12.5 CALM 0 0 - - - - - - - - - -
24/08:00pm 12.2 CALM 0 1 - - - - - - - - - -
24/07:30pm 12.8 S 2 3 - - - - - - - - - -
24/07:00pm 13.4 SW 3 4 - - - - - - - - - -
24/06:30pm 13.8 WSW 4 7 - - - - - - - - - -
24/06:00pm 13.8 SW 3 4 - - - - - - - - - -
24/05:30pm 13.9 SW 3 4 - - - - - - - - - -
24/05:00pm 14.3 WNW 8 10 - - - - - - - - - -
24/04:30pm 14.3 WNW 9 11 - - - - - - - - - -
24/04:00pm 14.2 WNW 9 11 - - - - - - - - - -
24/03:30pm 14.2 W 9 10 - - - - - - - - - -
24/03:00pm 14.1 W 9 10 - - - - - - - - - -
24/02:30pm 14.1 - - - - - - - - - - - - -
24/02:00pm 13.9 W 12 14 - - - - - - - - - -
24/01:30pm 13.9 WNW 11 14 - - - - - - - - - -
24/01:00pm 13.8 WNW 13 15 - - - - - - - - - -
24/12:30pm 13.7 WNW 12 14 - - - - - - - - - -
24/12:00pm 13.5 WNW 11 13 - - - - - - - - - -
24/11:30am 13.2 WNW 13 15 - - - - - - - - - -
24/11:00am 13.0 WNW 15 17 - - - - - - - - - -
24/10:30am 12.9 WNW 14 16 - - - - - - - - - -
24/10:00am 12.8 WNW 14 16 - - - - - - - - - -
24/09:30am 13.0 WNW 13 15 - - - - - - - - - -
24/09:00am 12.6 W 12 15 - - - - - - - - - -
24/08:30am 12.6 W 13 16 - - - - - - - - - -
24/08:00am 12.7 W 14 17 - - - - - - - - - -
24/07:30am 12.7 W 16 20 - - - - - - - - - -
24/07:00am 12.6 W 16 19 - - - - - - - - - -
24/06:30am 12.5 WNW 16 19 - - - - - - - - - -
24/06:00am 12.5 WNW 16 19 - - - - - - - - - -
24/05:30am 12.8 WNW 16 19 - - - - - - - - - -
24/05:00am 12.6 WNW 15 18 - - - - - - - - - -
24/04:30am 12.9 WNW 17 21 - - - - - - - - - -
24/04:00am 12.7 WNW 17 20 - - - - - - - - - -
24/03:30am 13.0 WNW 17 20 - - - - - - - - - -
24/03:00am 12.9 WNW 16 20 - - - - - - - - - -
24/02:30am 12.8 WNW 15 17 - - - - - - - - - -
24/02:00am 12.9 WNW 16 20 - - - - - - - - - -
24/01:30am 12.8 WNW 15 19 - - - - - - - - - -
24/01:00am 12.8 W 15 18 - - - - - - - - - -
24/12:30am 12.9 W 15 18 - - - - - - - - - -
24/12:00am 13.0 W 16 20 - - - - - - - - - -
 
Date/Time
EST
Temp

°C
Wind Pressure Rain
since 9am
mm
Weather Cloud Vis
km
Sea
Height
m
Swell
Dir
 
Speed
knots
Gust
knots
hPa Trend Height
m
Period
s
Dir
23/11:30pm 12.9 WNW 15 18 - - - - - - - - - -
23/11:00pm 12.9 WNW 15 18 - - - - - - - - - -
23/10:30pm 13.0 WNW 14 17 - - - - - - - - - -
23/10:00pm 13.0 WNW 13 16 - - - - - - - - - -
23/09:30pm 13.0 WNW 12 14 - - - - - - - - - -
23/09:00pm 13.2 WNW 11 14 - - - - - - - - - -
23/08:30pm 13.3 WNW 12 15 - - - - - - - - - -
23/08:00pm 13.1 WNW 11 14 - - - - - - - - - -
23/07:30pm 12.7 WNW 10 12 - - - - - - - - - -
23/07:00pm 12.6 W 10 12 - - - - - - - - - -
23/06:30pm 12.4 W 11 14 - - - - - - - - - -
23/06:00pm 12.3 W 14 17 - - - - - - - - - -
23/05:30pm 12.8 W 15 18 - - - - - - - - - -
23/05:00pm 12.9 W 14 17 - - - - - - - - - -
23/04:30pm 12.4 W 19 23 - - - - - - - - - -
23/04:00pm 12.7 WSW 16 20 - - - - - - - - - -
23/03:30pm 12.6 WSW 21 25 - - - - - - - - - -
23/03:00pm 12.6 WSW 22 28 - - - - - - - - - -
23/02:45pm 14.0 W 20 33 - - - - - - - - - -
23/02:30pm 14.4 WNW 19 23 - - - - - - - - - -
23/02:00pm 14.2 WNW 20 23 - - - - - - - - - -
23/01:30pm 14.2 WNW 21 26 - - - - - - - - - -
23/01:00pm 14.2 WNW 21 25 - - - - - - - - - -
23/12:30pm 13.8 WNW 19 24 - - - - - - - - - -
23/12:00pm 13.5 WNW 20 23 - - - - - - - - - -
23/11:30am 13.1 WNW 19 24 - - - - - - - - - -
23/11:00am 13.0 WNW 19 23 - - - - - - - - - -
23/10:30am 12.6 WNW 18 21 - - - - - - - - - -
23/10:00am 12.5 WNW 17 22 - - - - - - - - - -
23/09:30am 12.3 WNW 17 21 - - - - - - - - - -
23/09:00am 12.4 WNW 21 24 - - - - - - - - - -
23/08:30am 12.6 WNW 24 31 - - - - - - - - - -
23/08:00am 12.9 WNW 23 29 - - - - - - - - - -
23/07:30am 13.3 WNW 24 32 - - - - - - - - - -
23/07:00am 13.8 WNW 25 34 - - - - - - - - - -
23/06:30am 14.3 WNW 26 36 - - - - - - - - - -
23/06:21am 14.4 NW 23 36 - - - - - - - - - -
23/06:00am 14.5 NW 20 25 - - - - - - - - - -
23/05:30am 14.6 NW 18 23 - - - - - - - - - -
23/05:00am 14.4 WNW 21 27 - - - - - - - - - -

Other Formats:

Comma delimited format used in spreadsheet applications
http://www.bom.gov.au/fwo/IDV60701/IDV60701.94871.axf

JavaScript Object Notation format (JSON) in row-major order
http://www.bom.gov.au/fwo/IDV60701/IDV60701.94871.json